createdAt,value
2019-03-28T00:02:27.812Z,7.40
2019-03-28T00:07:24.291Z,7.30
2019-03-28T00:12:20.332Z,7.10
2019-03-28T00:17:15.586Z,6.60
2019-03-28T00:22:12.791Z,7.10
2019-03-28T00:27:08.088Z,7.00
2019-03-28T00:32:03.512Z,6.80
2019-03-28T00:36:58.790Z,6.60
2019-03-28T00:41:54.024Z,5.90
2019-03-28T00:46:49.320Z,6.47
2019-03-28T00:51:44.597Z,6.57
2019-03-28T00:56:46.770Z,6.40
2019-03-28T01:01:37.820Z,7.07
2019-03-28T01:06:33.171Z,7.40
2019-03-28T01:11:28.701Z,7.67
2019-03-28T01:16:24.361Z,16.63
2019-03-28T01:21:19.637Z,8.87
2019-03-28T01:26:14.913Z,9.23
2019-03-28T01:31:13.350Z,9.20
2019-03-28T01:36:08.937Z,9.80
2019-03-28T01:41:04.228Z,10.63
2019-03-28T01:45:59.513Z,7.30
2019-03-28T01:50:54.907Z,7.43
2019-03-28T01:55:50.282Z,6.40
2019-03-28T02:00:51.357Z,6.40
2019-03-28T02:05:46.734Z,7.03
2019-03-28T02:10:42.059Z,8.13
2019-03-28T02:15:37.319Z,8.37
2019-03-28T02:20:32.582Z,7.00
2019-03-28T02:25:28.117Z,6.23
2019-03-28T02:30:32.356Z,6.40
2019-03-28T02:35:27.968Z,6.33
2019-03-28T02:40:23.339Z,6.70
2019-03-28T02:45:18.607Z,6.23
2019-03-28T02:50:13.999Z,6.03
2019-03-28T02:55:09.649Z,6.73
2019-03-28T03:00:05.414Z,6.77
2019-03-28T03:05:00.735Z,6.27
2019-03-28T03:09:56.060Z,6.93
2019-03-28T03:14:51.513Z,7.57
2019-03-28T03:19:46.850Z,7.73
2019-03-28T03:24:42.229Z,7.60
2019-03-28T03:29:39.529Z,7.40
2019-03-28T03:34:49.989Z,7.00
2019-03-28T03:39:45.523Z,7.60
2019-03-28T03:44:42.003Z,7.97
2019-03-28T03:49:37.905Z,7.53
2019-03-28T03:54:33.518Z,7.20
2019-03-28T03:59:28.907Z,7.93
2019-03-28T04:04:39.743Z,7.30
2019-03-28T04:09:35.065Z,7.70
2019-03-28T04:14:30.363Z,7.40
2019-03-28T04:19:25.666Z,7.73
2019-03-28T04:24:21.837Z,7.97
2019-03-28T04:29:17.263Z,7.67
2019-03-28T04:34:12.977Z,7.87
2019-03-28T04:39:08.489Z,7.53
2019-03-28T04:44:03.930Z,8.43
2019-03-28T04:48:59.189Z,8.43
2019-03-28T04:53:56.298Z,8.03
2019-03-28T04:58:51.823Z,8.23
2019-03-28T05:03:47.435Z,7.60
2019-03-28T05:08:42.649Z,7.37
2019-03-28T05:13:37.907Z,7.27
2019-03-28T05:18:33.500Z,7.90
2019-03-28T05:23:28.790Z,7.40
2019-03-28T05:28:24.065Z,7.93
2019-03-28T05:33:19.952Z,8.30
2019-03-28T05:38:15.333Z,7.40
2019-03-28T05:43:10.907Z,7.00
2019-03-28T05:48:06.180Z,8.00
2019-03-28T05:53:01.510Z,8.23
2019-03-28T05:57:58.469Z,8.37
2019-03-28T06:02:54.047Z,8.57
2019-03-28T06:07:49.329Z,8.67
2019-03-28T06:12:44.590Z,8.77
2019-03-28T06:17:40.217Z,8.80
2019-03-28T06:22:35.478Z,8.00
2019-03-28T06:27:30.788Z,8.90
2019-03-28T06:32:26.052Z,9.90
2019-03-28T06:37:21.312Z,8.43
2019-03-28T06:42:16.833Z,9.03
2019-03-28T06:47:17.346Z,9.63
2019-03-28T06:52:12.617Z,8.50
2019-03-28T06:57:07.954Z,9.37
2019-03-28T07:02:06.325Z,8.53
2019-03-28T07:07:01.589Z,8.90
2019-03-28T07:11:56.861Z,10.20
2019-03-28T07:16:52.501Z,9.10
2019-03-28T07:21:47.899Z,10.40
2019-03-28T07:26:43.166Z,10.87
2019-03-28T07:31:38.434Z,10.67
2019-03-28T07:36:34.015Z,11.87
2019-03-28T07:41:31.393Z,12.67
2019-03-28T07:46:28.665Z,12.80
2019-03-28T07:51:24.021Z,12.10
2019-03-28T07:56:20.344Z,12.50
2019-03-28T08:01:18.021Z,12.50
2019-03-28T08:06:13.067Z,12.53
2019-03-28T08:11:08.658Z,12.67
2019-03-28T08:16:04.433Z,13.27
2019-03-28T08:20:59.766Z,13.63
2019-03-28T08:25:55.038Z,15.27
2019-03-28T08:30:50.311Z,14.80
2019-03-28T08:35:49.267Z,15.33
2019-03-28T08:40:46.799Z,15.93
2019-03-28T08:45:42.070Z,15.37
2019-03-28T08:50:37.409Z,14.73
2019-03-28T08:55:33.022Z,15.07
2019-03-28T09:00:35.180Z,13.40
2019-03-28T09:05:25.340Z,12.73
2019-03-28T09:10:22.724Z,12.20
2019-03-28T09:15:18.092Z,12.00
2019-03-28T09:20:13.441Z,12.27
2019-03-28T09:25:08.902Z,12.70
2019-03-28T09:30:04.992Z,11.33
2019-03-28T09:35:00.448Z,10.57
2019-03-28T09:39:55.674Z,10.80
2019-03-28T09:44:52.619Z,7.10
2019-03-28T09:49:48.239Z,8.37
2019-03-28T09:54:43.581Z,8.43
2019-03-28T09:59:38.906Z,7.63
2019-03-28T10:04:34.465Z,7.93
2019-03-28T10:09:29.737Z,8.10
2019-03-28T10:14:25.005Z,8.23
2019-03-28T10:19:20.281Z,8.23
2019-03-28T10:24:15.543Z,7.30
2019-03-28T10:29:11.669Z,8.03
2019-03-28T10:34:07.134Z,6.30
2019-03-28T10:39:02.395Z,6.97
2019-03-28T10:43:57.661Z,5.80
2019-03-28T10:48:54.479Z,6.83
2019-03-28T10:53:50.015Z,6.00
2019-03-28T10:58:51.084Z,6.50
2019-03-28T11:03:46.347Z,6.47
2019-03-28T11:08:43.322Z,5.80
2019-03-28T11:13:38.648Z,5.37
2019-03-28T11:18:34.166Z,4.93
2019-03-28T11:23:29.422Z,6.07
2019-03-28T11:28:24.692Z,4.80
2019-03-28T11:33:20.224Z,4.77
2019-03-28T11:38:15.499Z,4.40
2019-03-28T11:43:10.784Z,4.87
2019-03-28T11:48:06.343Z,4.73
2019-03-28T11:53:01.626Z,4.90
2019-03-28T11:57:58.132Z,4.77
2019-03-28T12:02:53.318Z,4.77
2019-03-28T12:07:48.575Z,5.57
2019-03-28T12:12:43.849Z,4.90
2019-03-28T12:17:39.134Z,5.30
2019-03-28T12:22:34.388Z,4.83
2019-03-28T12:27:29.645Z,4.83
2019-03-28T12:32:24.910Z,4.80
2019-03-28T12:37:20.242Z,4.97
2019-03-28T12:42:15.502Z,5.00
2019-03-28T12:47:10.767Z,5.47
2019-03-28T12:52:08.205Z,5.03
2019-03-28T12:57:03.445Z,4.87
2019-03-28T13:02:04.844Z,5.17
2019-03-28T13:07:00.380Z,4.37
2019-03-28T13:11:55.640Z,5.63
2019-03-28T13:16:51.077Z,5.60
2019-03-28T13:21:50.291Z,5.97
2019-03-28T13:26:45.797Z,6.37
2019-03-28T13:31:41.070Z,6.30
2019-03-28T13:36:36.808Z,6.43
2019-03-28T13:41:34.198Z,6.53
2019-03-28T13:46:29.456Z,6.20
2019-03-28T13:51:26.360Z,6.47
2019-03-28T13:56:23.250Z,7.03
2019-03-28T14:01:18.517Z,7.00
2019-03-28T14:06:13.780Z,6.30
2019-03-28T14:11:09.118Z,6.67
2019-03-28T14:16:04.438Z,6.80
2019-03-28T14:20:59.955Z,7.07
2019-03-28T14:25:58.530Z,7.90
2019-03-28T14:30:54.097Z,7.70
2019-03-28T14:35:49.877Z,7.77
2019-03-28T14:40:45.222Z,6.80
2019-03-28T14:45:40.503Z,7.17
2019-03-28T14:50:37.697Z,7.03
2019-03-28T14:55:37.202Z,7.80
2019-03-28T15:00:47.294Z,8.23
2019-03-28T15:05:43.288Z,8.10
2019-03-28T15:10:38.878Z,7.70
2019-03-28T15:15:34.150Z,7.90
2019-03-28T15:20:29.867Z,8.23
2019-03-28T15:25:27.552Z,9.37
2019-03-28T15:30:22.903Z,9.40
2019-03-28T15:35:18.175Z,9.07
2019-03-28T15:40:13.833Z,9.03
2019-03-28T15:45:09.796Z,8.53
2019-03-28T15:50:05.672Z,9.00
2019-03-28T15:55:00.942Z,9.77
2019-03-28T15:59:56.215Z,8.60
2019-03-28T16:04:51.492Z,8.73
2019-03-28T16:09:47.094Z,8.80
2019-03-28T16:14:42.447Z,8.50
2019-03-28T16:19:37.721Z,7.60
2019-03-28T16:24:33.015Z,7.97
2019-03-28T16:29:28.573Z,6.37
2019-03-28T16:34:24.110Z,6.40
2019-03-28T16:39:19.368Z,6.17
2019-03-28T16:44:14.634Z,6.17
2019-03-28T16:49:09.895Z,6.63
2019-03-28T16:54:05.251Z,6.17
2019-03-28T16:59:00.514Z,6.33
2019-03-28T17:03:55.858Z,6.03
2019-03-28T17:08:53.030Z,6.80
2019-03-28T17:13:48.229Z,7.40
2019-03-28T17:18:43.492Z,6.20
2019-03-28T17:23:38.839Z,6.40
2019-03-28T17:28:34.110Z,6.00
2019-03-28T17:33:32.459Z,6.20
2019-03-28T17:38:27.730Z,5.43
2019-03-28T17:43:23.351Z,6.43
2019-03-28T17:48:21.946Z,7.27
2019-03-28T17:53:17.230Z,7.03
2019-03-28T17:58:12.526Z,7.87
2019-03-28T18:03:09.440Z,8.00
2019-03-28T18:08:04.932Z,7.27
2019-03-28T18:13:03.469Z,9.23
2019-03-28T18:17:58.821Z,10.50
2019-03-28T18:22:54.596Z,9.53
2019-03-28T18:27:49.936Z,8.33
2019-03-28T18:32:45.281Z,9.07
2019-03-28T18:37:40.855Z,8.10
2019-03-28T18:42:36.436Z,8.43
2019-03-28T18:47:31.984Z,10.00
2019-03-28T18:52:27.268Z,10.57
2019-03-28T18:57:22.536Z,9.67
2019-03-28T19:02:17.796Z,9.43
2019-03-28T19:07:13.066Z,7.70
2019-03-28T19:12:08.346Z,7.23
2019-03-28T19:17:03.594Z,6.73
2019-03-28T19:21:58.995Z,6.97
2019-03-28T19:26:56.409Z,7.77
2019-03-28T19:31:51.685Z,7.10
2019-03-28T19:36:47.511Z,7.13
2019-03-28T19:41:42.764Z,6.90
2019-03-28T19:46:38.018Z,6.97
2019-03-28T19:51:33.889Z,7.03
2019-03-28T19:56:29.290Z,7.40
2019-03-28T20:01:24.565Z,6.83
2019-03-28T20:06:22.419Z,6.80
2019-03-28T20:11:17.226Z,6.70
2019-03-28T20:16:12.436Z,6.53
2019-03-28T20:21:07.691Z,5.90
2019-03-28T20:26:03.272Z,6.60
2019-03-28T20:30:58.535Z,6.13
2019-03-28T20:36:11.595Z,7.70
2019-03-28T20:40:51.040Z,6.90
2019-03-28T20:45:46.610Z,6.23
2019-03-28T20:50:41.885Z,5.80
2019-03-28T20:55:37.166Z,5.80
2019-03-28T21:00:43.867Z,6.17
2019-03-28T21:05:42.422Z,6.10
2019-03-28T21:10:37.781Z,6.07
2019-03-28T21:15:33.781Z,6.50
2019-03-28T21:20:29.028Z,6.00
2019-03-28T21:25:24.369Z,6.13
2019-03-28T21:30:27.059Z,6.07
2019-03-28T21:35:22.477Z,6.60
2019-03-28T21:40:17.888Z,7.20
2019-03-28T21:45:14.409Z,6.90
2019-03-28T21:50:10.496Z,7.00
2019-03-28T21:55:06.966Z,9.10
2019-03-28T22:00:14.132Z,8.17
2019-03-28T22:05:10.298Z,7.03
2019-03-28T22:10:08.711Z,5.93
2019-03-28T22:15:05.966Z,6.40
2019-03-28T22:20:03.251Z,6.70
2019-03-28T22:24:58.514Z,6.70
2019-03-28T22:29:54.563Z,6.43
2019-03-28T22:34:49.866Z,6.57
2019-03-28T22:39:45.334Z,6.33
2019-03-28T22:44:40.604Z,6.47
2019-03-28T22:49:35.879Z,6.03
2019-03-28T22:54:31.233Z,6.20
2019-03-28T22:59:29.976Z,6.00
2019-03-28T23:04:25.312Z,6.67
2019-03-28T23:09:20.605Z,5.70
2019-03-28T23:14:15.905Z,6.30
2019-03-28T23:19:12.288Z,5.83
2019-03-28T23:24:07.608Z,6.37
2019-03-28T23:29:03.176Z,6.53
2019-03-28T23:33:58.450Z,6.50
2019-03-28T23:38:53.724Z,6.40
2019-03-28T23:43:49.176Z,6.10
2019-03-28T23:48:44.449Z,5.93
2019-03-28T23:53:39.807Z,5.97
2019-03-28T23:58:35.072Z,5.97
